Terminal Aerodrome Forecast
Issued by NWS

Home | Current Version | Previous Version | Text Only | Print | Product List | Glossary On
Versions: 1 2 3 4 5 6 7 8 9 10 11 12 13 14 15 16 17 18 19 20 21 22 23 24 25
000
FTPA31 PHFO 031200 AAA
TAFMDY
TAF AMD
PMDY 031242Z 0313/0412 06012KT P6SM SCT022 OVC035
     FM031800 07013KT P6SM VCSH SCT018 OVC035
     FM040200 07012KT P6SM FEW022 BKN040
      AMD LTD TO CLD AND WIND=

USA.gov is the U.S. government's official web portal to all federal, state and local government web resources and services.